Time;durP1;ratioP1;P1;durP2;ratioP2;P2;SDS_P1;SDS_P2;PMS_P1;PMS_P2;Temp;Humidity;BMP_temperature;BMP_pressure;BME280_temperature;BME280_humidity;BME280_pressure;Samples;Min_cycle;Max_cycle;Signal;HPM_P1;HPM_P2
2022/06/16 00:01:54;;;;;;;;;10.00;10.00;;;;;25.08;39.83;101501.06;5063033;28;45207;-57
2022/06/16 00:04:22;;;;;;;;;7.50;7.50;;;;;25.05;39.79;101494.16;5063039;28;45288;-58
2022/06/16 00:06:47;;;;;;;;;9.50;8.75;;;;;25.02;39.94;101507.91;5062891;28;45217;-58
2022/06/16 00:09:13;;;;;;;;;12.75;11.00;;;;;24.98;39.48;101499.31;5063282;28;45450;-58
2022/06/16 00:11:38;;;;;;;;;9.25;8.25;;;;;24.93;39.73;101506.22;5063371;28;45214;-59
2022/06/16 00:14:04;;;;;;;;;11.50;9.75;;;;;24.87;40.00;101510.41;5067403;28;45926;-60
2022/06/16 00:16:29;;;;;;;;;12.00;9.75;;;;;24.82;39.76;101514.63;5069787;27;45378;-57
2022/06/16 00:18:55;;;;;;;;;10.75;9.50;;;;;24.78;39.97;101506.84;5072457;27;45406;-58
2022/06/16 00:21:20;;;;;;;;;10.50;9.50;;;;;24.73;40.33;101511.06;5070310;28;45308;-55
2022/06/16 00:23:46;;;;;;;;;8.00;8.00;;;;;24.70;40.02;101509.53;5073290;28;45359;-55
2022/06/16 00:26:14;;;;;;;;;13.00;9.00;;;;;24.68;40.29;101516.09;5073048;28;45323;-52
2022/06/16 00:28:40;;;;;;;;;12.50;10.00;;;;;24.65;40.46;101511.06;5073279;28;45255;-54
2022/06/16 00:31:07;;;;;;;;;11.25;9.00;;;;;24.62;40.82;101512.22;5069023;27;45437;-55
2022/06/16 00:33:33;;;;;;;;;10.25;10.25;;;;;24.60;40.28;101518.78;5071742;28;46040;-55
2022/06/16 00:35:59;;;;;;;;;9.00;9.00;;;;;24.57;40.99;101519.06;5070364;28;45419;-56
2022/06/16 00:38:25;;;;;;;;;11.50;9.75;;;;;24.53;40.57;101523.13;5072754;28;45664;-55
2022/06/16 00:40:51;;;;;;;;;12.00;10.00;;;;;24.50;41.17;101521.59;5071957;27;45444;-54
2022/06/16 00:43:17;;;;;;;;;11.50;10.50;;;;;24.47;41.11;101527.31;5072204;28;45496;-54
2022/06/16 00:46:00;;;;;;;;;9.25;9.25;;;;;24.45;41.36;101532.84;5069063;28;45476;-57
2022/06/16 00:48:55;;;;;;;;;8.50;8.50;;;;;24.45;40.98;101540.09;5072143;28;45468;-55
2022/06/16 00:51:49;;;;;;;;;10.75;10.00;;;;;24.44;41.59;101543.78;5066978;28;45236;-56
2022/06/16 00:54:26;;;;;;;;;17.50;12.25;;;;;24.42;41.12;101535.03;5067173;28;46725;-56
2022/06/16 00:56:56;;;;;;;;;11.25;10.00;;;;;24.38;41.41;101547.97;5071187;28;45391;-57
2022/06/16 00:59:23;;;;;;;;;12.00;11.00;;;;;24.34;41.29;101538.53;5070171;27;45201;-57
2022/06/16 01:01:50;;;;;;;;;10.25;10.00;;;;;24.32;41.39;101539.66;5072278;28;45250;-58
2022/06/16 01:07:04;;;;;;;;;12.50;11.25;;;;;24.19;42.19;101548.19;5068585;28;45620;-57
2022/06/16 01:09:32;;;;;;;;;13.25;10.50;;;;;24.13;42.21;101549.66;5069828;27;45493;-57
2022/06/16 01:14:53;;;;;;;;;11.25;11.25;;;;;24.07;42.32;101565.59;5071304;28;45697;-57
2022/06/16 01:17:30;;;;;;;;;15.75;14.00;;;;;24.04;42.33;101566.78;5070461;28;45173;-57
2022/06/16 01:20:22;;;;;;;;;10.25;10.00;;;;;24.03;42.06;101572.31;5065758;28;45397;-57
2022/06/16 01:23:12;;;;;;;;;11.00;10.25;;;;;23.99;42.30;101573.63;5077276;28;45571;-57
2022/06/16 01:26:02;;;;;;;;;9.50;9.25;;;;;23.95;42.66;101587.41;5053218;28;46256;-56
2022/06/16 01:29:21;;;;;;;;;16.25;11.00;;;;;23.92;42.54;101585.00;5061793;28;45307;-55
2022/06/16 01:32:01;;;;;;;;;14.75;12.25;;;;;23.90;42.76;101586.19;5039690;28;45520;-56
2022/06/16 01:35:09;;;;;;;;;15.25;13.00;;;;;23.85;43.03;101583.94;5061622;28;45189;-52
2022/06/16 01:38:06;;;;;;;;;14.75;13.00;;;;;23.85;43.05;101586.63;5060743;28;45331;-48
2022/06/16 01:40:37;;;;;;;;;13.00;13.00;;;;;23.83;43.04;101580.59;5053879;28;45521;-50
2022/06/16 01:43:15;;;;;;;;;10.50;10.25;;;;;23.83;43.06;101585.13;5061802;28;45288;-47
2022/06/16 01:45:49;;;;;;;;;14.00;13.00;;;;;23.81;43.13;101587.97;5061913;28;45432;-51
2022/06/16 01:48:17;;;;;;;;;12.75;12.75;;;;;23.80;42.96;101588.97;5061767;28;46323;-48
2022/06/16 01:51:14;;;;;;;;;12.75;10.50;;;;;23.79;43.34;101591.84;5061222;28;45311;-47
2022/06/16 01:53:42;;;;;;;;;13.75;12.00;;;;;23.79;43.08;101597.22;5061732;28;45221;-48
2022/06/16 01:56:24;;;;;;;;;13.50;12.50;;;;;23.76;43.60;101600.19;5061566;28;45372;-48
2022/06/16 01:58:57;;;;;;;;;12.75;7.75;;;;;23.75;43.21;101601.19;5061402;28;46217;-47
2022/06/16 02:01:28;;;;;;;;;11.25;11.00;;;;;23.71;43.71;101603.38;5061443;28;45458;-48
2022/06/16 02:04:02;;;;;;;;;13.25;11.00;;;;;23.72;43.35;101609.59;5061533;28;45310;-50
2022/06/16 02:06:32;;;;;;;;;13.00;13.00;;;;;23.70;43.42;101614.25;5061371;28;45305;-46
2022/06/16 02:09:15;;;;;;;;;15.50;14.00;;;;;23.67;43.54;101618.13;5061145;28;45334;-47
2022/06/16 02:11:44;;;;;;;;;15.75;14.75;;;;;23.63;43.61;101611.38;5061326;28;45256;-48
2022/06/16 02:14:12;;;;;;;;;16.00;14.75;;;;;23.61;44.06;101619.56;5061546;28;45226;-47
2022/06/16 02:16:39;;;;;;;;;17.50;11.75;;;;;23.56;44.20;101613.78;5061384;28;45536;-48
2022/06/16 02:19:10;;;;;;;;;16.00;13.75;;;;;23.55;43.77;101619.34;5059841;28;46273;-48
2022/06/16 02:21:48;;;;;;;;;16.25;13.50;;;;;23.52;44.00;101620.47;5061018;28;45279;-47
2022/06/16 02:24:16;;;;;;;;;13.50;13.50;;;;;23.51;43.94;101615.25;5069383;28;45208;-50
2022/06/16 02:26:42;;;;;;;;;13.00;13.00;;;;;23.46;43.93;101618.41;5061211;28;45346;-48
2022/06/16 02:29:29;;;;;;;;;11.50;9.50;;;;;23.42;44.35;101619.72;5061023;28;46082;-51
2022/06/16 02:32:15;;;;;;;;;14.75;11.75;;;;;23.39;44.30;101615.50;5061159;28;45322;-48
2022/06/16 02:34:53;;;;;;;;;13.25;12.00;;;;;23.35;44.30;101610.56;5060559;28;45294;-51
2022/06/16 02:37:43;;;;;;;;;12.00;12.00;;;;;23.33;44.24;101613.41;5061059;28;45487;-51
2022/06/16 02:40:21;;;;;;;;;15.00;14.00;;;;;23.34;44.40;101614.25;5060856;28;46102;-48
2022/06/16 02:42:59;;;;;;;;;14.50;14.00;;;;;23.29;44.40;101613.84;5060621;28;45384;-48
2022/06/16 02:45:30;;;;;;;;;16.75;14.75;;;;;23.26;44.77;101615.00;5061009;28;45406;-46
2022/06/16 02:48:07;;;;;;;;;14.75;14.75;;;;;23.20;44.71;101615.59;5060027;28;45462;-50
2022/06/16 02:50:50;;;;;;;;;15.50;12.50;;;;;23.13;44.68;101620.75;5060350;28;46348;-47
2022/06/16 02:53:39;;;;;;;;;19.75;16.25;;;;;23.10;44.72;101626.44;5060971;28;45445;-49
2022/06/16 02:56:20;;;;;;;;;14.00;12.25;;;;;23.03;45.10;101633.41;5060488;28;45377;-51
2022/06/16 02:58:49;;;;;;;;;17.50;12.75;;;;;22.96;44.80;101626.94;5060680;28;45175;-49
2022/06/16 03:01:16;;;;;;;;;14.00;13.75;;;;;22.88;44.80;101626.00;5060500;28;45358;-50
2022/06/16 03:03:42;;;;;;;;;14.75;12.50;;;;;22.81;45.34;101625.69;5060421;28;45515;-51
2022/06/16 03:06:11;;;;;;;;;18.50;14.25;;;;;22.75;45.03;101631.66;5060680;28;45440;-51
2022/06/16 03:08:41;;;;;;;;;11.25;9.50;;;;;22.70;45.29;101629.44;5060695;28;45311;-52
2022/06/16 03:11:08;;;;;;;;;16.00;15.00;;;;;22.71;45.28;101636.50;5060395;28;45354;-48
2022/06/16 03:13:34;;;;;;;;;20.50;13.50;;;;;22.73;45.47;101631.81;5060484;28;45244;-47
2022/06/16 03:16:02;;;;;;;;;18.00;15.00;;;;;22.70;45.67;101629.44;5060506;28;45238;-51
2022/06/16 03:18:27;;;;;;;;;13.50;11.00;;;;;22.72;45.74;101635.50;5060631;28;45457;-50
2022/06/16 03:20:53;;;;;;;;;19.00;14.25;;;;;22.71;45.86;101636.50;5060137;28;45920;-49
2022/06/16 03:23:19;;;;;;;;;16.25;14.00;;;;;22.69;45.88;101634.97;5068502;28;45289;-49
2022/06/16 03:25:46;;;;;;;;;16.50;13.00;;;;;22.65;45.85;101637.09;5060669;28;45268;-50
2022/06/16 03:28:13;;;;;;;;;20.00;16.25;;;;;22.62;45.80;101641.91;5060274;28;45537;-51
2022/06/16 03:30:40;;;;;;;;;18.50;16.25;;;;;22.61;45.75;101646.44;5060455;28;45311;-52
2022/06/16 03:33:08;;;;;;;;;21.00;16.50;;;;;22.58;46.16;101650.25;5060204;28;45326;-52
2022/06/16 03:35:34;;;;;;;;;19.00;18.25;;;;;22.55;45.91;101655.94;5059902;28;45257;-50
2022/06/16 03:38:02;;;;;;;;;20.00;15.25;;;;;22.54;46.04;101664.13;5060260;28;45335;-50
2022/06/16 03:40:28;;;;;;;;;19.00;16.50;;;;;22.50;46.35;101651.97;5060113;28;45374;-51
2022/06/16 03:42:53;;;;;;;;;18.75;15.00;;;;;22.50;46.25;101654.66;5059990;28;45300;-47
2022/06/16 03:45:19;;;;;;;;;22.25;18.75;;;;;22.50;46.28;101649.28;5060169;28;45354;-49
2022/06/16 03:47:45;;;;;;;;;16.50;15.00;;;;;22.49;46.21;101651.13;5060163;28;45489;-47
2022/06/16 03:50:14;;;;;;;;;18.25;15.75;;;;;22.51;45.95;101656.34;5059655;28;45362;-48
2022/06/16 03:52:40;;;;;;;;;16.75;15.50;;;;;22.51;46.58;101651.84;5059928;28;45396;-47
2022/06/16 03:55:07;;;;;;;;;17.75;14.00;;;;;22.51;46.38;101662.59;5060131;28;45363;-47
2022/06/16 03:57:32;;;;;;;;;16.50;14.00;;;;;22.52;46.34;101655.38;5060099;28;45280;-47
2022/06/16 03:59:57;;;;;;;;;16.75;13.25;;;;;22.52;46.73;101658.91;5061241;28;45942;-47
2022/06/16 04:02:23;;;;;;;;;18.25;14.50;;;;;22.49;46.76;101667.25;5063098;28;45595;-47
2022/06/16 04:04:49;;;;;;;;;19.75;17.75;;;;;22.46;46.80;101664.88;5063313;28;45236;-46
2022/06/16 04:07:14;;;;;;;;;17.00;15.25;;;;;22.43;46.93;101675.03;5063432;28;45418;-47
2022/06/16 04:09:40;;;;;;;;;19.25;15.50;;;;;22.36;46.56;101669.41;5063264;28;45287;-47
2022/06/16 04:12:06;;;;;;;;;16.50;16.00;;;;;22.33;46.91;101668.84;5063187;28;45224;-52
2022/06/16 04:14:32;;;;;;;;;20.50;15.00;;;;;22.25;46.96;101665.03;5063327;28;45402;-51
2022/06/16 04:16:58;;;;;;;;;15.00;14.00;;;;;22.21;46.88;101662.81;5063154;28;45331;-50
2022/06/16 04:19:24;;;;;;;;;16.00;14.25;;;;;22.20;47.00;101661.97;5061533;28;45388;-47
2022/06/16 04:21:54;;;;;;;;;18.75;15.75;;;;;22.18;46.98;101666.59;5062990;28;45343;-52
2022/06/16 04:24:21;;;;;;;;;18.75;15.00;;;;;22.13;47.30;101665.38;5055031;28;45263;-51
2022/06/16 04:26:51;;;;;;;;;17.75;16.00;;;;;22.09;46.93;101666.63;5063086;28;45224;-49
2022/06/16 04:29:18;;;;;;;;;23.00;17.25;;;;;22.07;47.30;101676.63;5062804;28;46164;-53
2022/06/16 04:31:44;;;;;;;;;19.25;19.00;;;;;22.08;47.23;101681.88;5062835;28;45501;-49
2022/06/16 04:34:09;;;;;;;;;17.00;16.50;;;;;22.07;47.01;101695.41;5062797;28;45446;-50
2022/06/16 04:36:36;;;;;;;;;19.00;17.00;;;;;22.08;47.29;101695.28;5062771;28;45481;-53
2022/06/16 04:39:01;;;;;;;;;16.00;11.00;;;;;22.12;47.34;101695.84;5062635;28;45364;-48
2022/06/16 04:41:27;;;;;;;;;17.75;14.50;;;;;22.11;47.38;101697.69;5065295;28;45311;-48
2022/06/16 04:43:52;;;;;;;;;16.00;13.75;;;;;22.14;47.51;101701.94;5062870;28;45319;-48
2022/06/16 04:46:19;;;;;;;;;21.25;16.75;;;;;22.17;47.29;101702.50;5065374;28;45169;-52
2022/06/16 04:48:45;;;;;;;;;26.00;18.00;;;;;22.19;47.64;101707.72;5062469;28;45361;-51
2022/06/16 04:51:12;;;;;;;;;27.50;18.75;;;;;22.21;47.49;101708.44;5065091;28;45301;-49
2022/06/16 04:53:38;;;;;;;;;42.50;28.00;;;;;22.24;47.83;101708.97;5062679;28;45255;-54
2022/06/16 04:56:05;;;;;;;;;21.50;18.75;;;;;22.27;47.82;101711.38;5069705;28;45538;-46
2022/06/16 04:58:31;;;;;;;;;18.25;16.75;;;;;22.29;47.55;101712.09;5069589;28;47495;-47
2022/06/16 05:00:57;;;;;;;;;26.25;16.50;;;;;22.30;47.68;101715.63;5062226;28;45295;-49
2022/06/16 05:03:27;;;;;;;;;19.75;17.75;;;;;22.28;47.76;101714.94;5062098;28;45270;-52
2022/06/16 05:05:54;;;;;;;;;19.25;17.25;;;;;22.21;47.76;101709.28;5062000;28;45397;-49
2022/06/16 05:08:20;;;;;;;;;17.00;16.00;;;;;22.18;47.92;101716.75;5062009;28;46237;-49
2022/06/16 05:10:47;;;;;;;;;26.25;21.25;;;;;22.17;47.91;101720.44;5061632;28;45430;-51
2022/06/16 05:13:13;;;;;;;;;20.00;18.00;;;;;22.18;47.78;101722.97;5061678;28;45248;-47
2022/06/16 05:15:39;;;;;;;;;22.75;16.50;;;;;22.19;47.66;101727.34;5062344;28;45243;-50
2022/06/16 05:18:05;;;;;;;;;17.75;15.75;;;;;22.17;47.99;101740.06;5062128;28;45386;-50
2022/06/16 05:20:30;;;;;;;;;19.75;17.25;;;;;22.12;47.83;101733.41;5065202;28;45268;-51
2022/06/16 05:22:56;;;;;;;;;22.25;19.00;;;;;22.11;47.95;101746.00;5075857;28;45385;-51
2022/06/16 05:25:21;;;;;;;;;23.25;19.25;;;;;22.07;48.30;101752.59;5064019;28;45409;-49
2022/06/16 05:27:48;;;;;;;;;27.50;24.50;;;;;22.08;48.09;101759.69;5068030;28;45431;-50
2022/06/16 05:30:14;;;;;;;;;26.75;19.50;;;;;22.12;48.17;101757.56;5062807;28;45338;-51
2022/06/16 05:32:40;;;;;;;;;24.00;17.25;;;;;22.18;47.97;101770.44;5066743;28;45298;-47
2022/06/16 05:35:06;;;;;;;;;26.50;22.25;;;;;22.25;48.12;101769.72;5071273;28;45295;-54
2022/06/16 05:37:32;;;;;;;;;23.00;20.75;;;;;22.33;48.22;101777.06;5067502;28;45301;-67
2022/06/16 05:39:57;;;;;;;;;25.50;22.75;;;;;22.41;48.16;101785.25;5061079;28;45285;-53
2022/06/16 05:42:23;;;;;;;;;24.00;20.75;;;;;22.47;48.03;101787.38;5061675;28;45617;-53
2022/06/16 05:44:48;;;;;;;;;27.00;24.50;;;;;22.53;48.23;101789.50;5061805;28;45570;-53
2022/06/16 05:47:14;;;;;;;;;30.00;25.00;;;;;22.56;47.99;101797.25;5061469;28;45684;-54
2022/06/16 05:49:40;;;;;;;;;28.75;20.25;;;;;22.60;47.95;101805.91;5061465;28;45427;-53
2022/06/16 05:52:10;;;;;;;;;21.50;18.25;;;;;22.62;48.12;101800.38;5061592;28;45484;-52
2022/06/16 05:54:36;;;;;;;;;31.75;19.50;;;;;22.67;48.18;101804.34;5061998;28;45189;-55
2022/06/16 05:57:01;;;;;;;;;24.50;17.75;;;;;22.69;48.18;101799.66;5061358;28;45250;-52
2022/06/16 05:59:26;;;;;;;;;20.75;19.00;;;;;22.74;48.27;101805.44;5061679;28;45310;-54
2022/06/16 06:01:52;;;;;;;;;28.25;23.25;;;;;22.77;47.93;101799.78;5061230;28;45443;-52
2022/06/16 06:04:17;;;;;;;;;32.00;24.75;;;;;22.82;48.05;101802.84;5061607;28;45224;-53
2022/06/16 06:06:43;;;;;;;;;25.50;23.00;;;;;22.88;47.83;101803.31;5060067;28;45535;-53
2022/06/16 06:17:23;;;;;;;;;23.25;19.50;;;;;23.13;47.78;101816.13;5061229;28;45768;-53
2022/06/16 06:19:51;;;;;;;;;23.50;18.00;;;;;23.20;47.29;101824.44;5060840;28;45231;-50
2022/06/16 06:22:19;;;;;;;;;19.75;18.75;;;;;23.28;47.20;101822.72;5064413;28;45422;-52
2022/06/16 06:24:47;;;;;;;;;19.00;16.75;;;;;23.36;47.25;101824.66;5064973;28;45315;-54
2022/06/16 06:27:19;;;;;;;;;15.75;15.50;;;;;23.42;47.45;101825.94;5060706;28;46351;-51
2022/06/16 06:29:46;;;;;;;;;17.50;16.00;;;;;23.46;47.03;101825.50;5060487;28;45363;-53
2022/06/16 06:32:13;;;;;;;;;19.50;16.25;;;;;23.53;47.14;101833.78;5061220;28;45234;-51
2022/06/16 06:34:39;;;;;;;;;26.75;16.75;;;;;23.59;47.18;101833.19;5060886;28;45450;-54
2022/06/16 06:37:05;;;;;;;;;17.00;16.00;;;;;23.61;46.67;101840.16;5060918;28;45467;-51
2022/06/16 06:39:32;;;;;;;;;20.50;16.25;;;;;23.62;46.69;101844.56;5060577;28;45305;-51
2022/06/16 06:41:57;;;;;;;;;22.00;18.00;;;;;23.64;46.63;101837.19;5060645;28;45292;-53
2022/06/16 06:44:23;;;;;;;;;19.00;16.50;;;;;23.74;46.96;101836.28;5060838;28;45481;-52
2022/06/16 06:46:48;;;;;;;;;17.75;15.50;;;;;23.83;46.69;101846.97;5060903;28;46174;-54
2022/06/16 06:49:14;;;;;;;;;17.75;13.00;;;;;23.91;46.65;101851.59;5060378;28;45326;-54
2022/06/16 06:51:39;;;;;;;;;13.25;13.00;;;;;23.97;45.99;101845.63;5061047;28;45398;-54
2022/06/16 06:54:05;;;;;;;;;16.50;14.75;;;;;24.01;46.37;101848.84;5060850;28;45221;-53
2022/06/16 06:56:32;;;;;;;;;15.00;13.75;;;;;24.01;45.75;101855.06;5060663;28;45276;-54
2022/06/16 06:59:01;;;;;;;;;18.00;14.75;;;;;24.00;45.78;101864.16;5060644;28;45225;-50
2022/06/16 07:01:27;;;;;;;;;13.50;11.50;;;;;24.02;45.57;101851.41;5060711;28;45268;-53
2022/06/16 07:03:52;;;;;;;;;15.00;12.25;;;;;24.08;46.03;101855.31;5060416;28;45336;-54
2022/06/16 07:06:19;;;;;;;;;17.00;15.50;;;;;24.14;45.58;101862.81;5060446;28;45912;-53
2022/06/16 07:08:45;;;;;;;;;17.00;15.00;;;;;24.22;45.49;101862.88;5060398;28;45536;-53
2022/06/16 07:11:11;;;;;;;;;19.25;15.00;;;;;24.25;45.59;101859.88;5060556;28;45430;-54
2022/06/16 07:13:37;;;;;;;;;20.25;15.25;;;;;24.30;45.14;101862.13;5060479;28;45169;-53
2022/06/16 07:16:03;;;;;;;;;16.75;15.25;;;;;24.31;45.38;101869.19;5060364;28;45324;-53
2022/06/16 07:18:29;;;;;;;;;20.00;17.00;;;;;24.35;44.86;101870.63;5060411;28;45228;-53
2022/06/16 07:20:54;;;;;;;;;18.25;15.75;;;;;24.37;45.18;101869.47;5060323;28;45461;-50
2022/06/16 07:23:20;;;;;;;;;17.50;16.00;;;;;24.39;44.62;101878.22;5068584;28;45241;-50
2022/06/16 07:25:48;;;;;;;;;17.75;15.25;;;;;24.38;44.57;101884.63;5060331;28;45467;-49
2022/06/16 07:28:13;;;;;;;;;16.00;13.50;;;;;24.40;44.90;101887.16;5060203;28;45333;-52
2022/06/16 07:30:40;;;;;;;;;21.75;16.50;;;;;24.45;44.41;101892.94;5060132;28;45375;-50
2022/06/16 07:33:06;;;;;;;;;9.25;8.75;;;;;24.49;44.14;101884.41;5060333;28;45231;-53
2022/06/16 07:35:32;;;;;;;;;13.25;12.75;;;;;24.55;43.90;101888.31;5061952;28;45418;-51
2022/06/16 07:37:57;;;;;;;;;24.00;21.00;;;;;24.61;44.14;101897.63;5063780;28;46243;-49
2022/06/16 07:40:24;;;;;;;;;15.75;12.50;;;;;24.65;44.12;101897.19;5063629;28;45290;-53
2022/06/16 07:42:54;;;;;;;;;9.50;8.50;;;;;24.69;43.38;101903.09;5063750;28;45474;-53
2022/06/16 07:45:20;;;;;;;;;9.75;8.25;;;;;24.73;43.07;101902.66;5063541;28;46211;-52
2022/06/16 07:47:46;;;;;;;;;11.00;9.00;;;;;24.78;43.23;101894.94;5063565;28;45563;-53
2022/06/16 07:50:12;;;;;;;;;11.75;10.50;;;;;24.79;42.92;101895.78;5063451;28;45334;-53
2022/06/16 07:52:38;;;;;;;;;9.75;8.50;;;;;24.78;42.74;101894.09;5063689;28;45330;-54
2022/06/16 07:55:05;;;;;;;;;9.75;7.00;;;;;24.81;42.38;101903.72;5063094;28;45282;-54
2022/06/16 07:57:34;;;;;;;;;9.50;6.00;;;;;24.86;42.18;101896.00;5063483;28;45276;-51
2022/06/16 08:00:00;;;;;;;;;11.25;10.00;;;;;24.94;42.44;101896.06;5063597;28;45223;-50
2022/06/16 08:02:28;;;;;;;;;16.50;9.00;;;;;24.99;41.78;101897.28;5063316;28;45409;-50
2022/06/16 08:04:53;;;;;;;;;10.00;7.75;;;;;25.04;41.61;101889.63;5062840;28;45170;-53
2022/06/16 08:07:19;;;;;;;;;7.25;7.25;;;;;25.14;41.63;101888.69;5063135;28;45194;-53
2022/06/16 08:09:45;;;;;;;;;11.25;8.75;;;;;25.19;41.23;101894.41;5063706;28;45489;-51
2022/06/16 08:12:12;;;;;;;;;12.75;11.00;;;;;25.24;41.53;101892.94;5061966;28;45513;-53
2022/06/16 08:14:42;;;;;;;;;16.75;12.50;;;;;25.27;41.13;101895.31;5063228;28;46085;-53
2022/06/16 08:17:13;;;;;;;;;11.75;10.00;;;;;25.29;41.61;101896.03;5063050;28;45297;-50
2022/06/16 08:19:39;;;;;;;;;11.00;10.00;;;;;25.27;40.78;101899.88;5062925;28;45370;-52
2022/06/16 08:22:06;;;;;;;;;9.50;8.75;;;;;25.27;40.61;101902.56;5065187;28;45272;-51
2022/06/16 08:24:31;;;;;;;;;10.00;9.25;;;;;25.28;40.63;101902.44;5068981;28;45320;-50
2022/06/16 08:26:59;;;;;;;;;8.50;7.75;;;;;25.31;40.97;101906.66;5063042;28;45163;-54
2022/06/16 08:29:25;;;;;;;;;9.75;8.50;;;;;25.35;40.27;101897.22;5063048;28;45338;-52
2022/06/16 08:31:51;;;;;;;;;7.50;7.50;;;;;25.40;40.79;101891.34;5063291;28;45256;-54
2022/06/16 08:34:17;;;;;;;;;9.50;8.00;;;;;25.47;40.48;101898.66;5062616;28;45349;-52
2022/06/16 08:36:42;;;;;;;;;8.25;6.00;;;;;25.52;40.50;101900.88;5062803;28;45258;-52
2022/06/16 08:39:08;;;;;;;;;7.25;6.25;;;;;25.60;40.17;101899.06;5062932;28;45317;-53
2022/06/16 08:41:44;;;;;;;;;8.00;8.00;;;;;25.63;39.97;101903.28;5062931;28;45566;-53
2022/06/16 08:44:33;;;;;;;;;7.75;6.75;;;;;25.67;39.87;101898.41;5062745;28;45278;-54
2022/06/16 08:47:08;;;;;;;;;8.00;7.00;;;;;25.69;39.88;101902.66;5062790;28;45313;-53
2022/06/16 08:49:55;;;;;;;;;13.25;7.00;;;;;25.70;39.10;101906.19;5062519;28;45363;-52
2022/06/16 08:52:40;;;;;;;;;6.50;6.00;;;;;25.72;39.00;101910.44;5062796;28;45273;-53
2022/06/16 08:55:25;;;;;;;;;7.25;7.00;;;;;25.74;39.06;101907.59;5062491;28;46359;-54
2022/06/16 08:58:27;;;;;;;;;8.00;7.75;;;;;25.79;38.88;101907.94;5062640;28;45301;-54
2022/06/16 09:01:05;;;;;;;;;5.50;5.00;;;;;25.86;38.74;101907.16;5061030;28;45641;-52
2022/06/16 09:03:36;;;;;;;;;5.75;5.75;;;;;25.93;38.41;101901.09;5062429;28;45403;-54
2022/06/16 09:06:33;;;;;;;;;5.00;5.00;;;;;26.00;38.49;101904.84;5062316;28;46388;-53
2022/06/16 09:12:38;;;;;;;;;6.75;4.00;;;;;26.15;37.84;101895.09;5062688;28;45169;-54
2022/06/16 09:15:31;;;;;;;;;6.25;5.25;;;;;26.17;37.50;101887.66;5062348;28;46185;-50
2022/06/16 09:18:24;;;;;;;;;3.00;2.50;;;;;26.18;37.45;101894.75;5061999;28;46194;-53
2022/06/16 09:21:09;;;;;;;;;2.75;2.75;;;;;26.23;37.30;101902.34;5061824;28;45379;-54
2022/06/16 09:24:07;;;;;;;;;4.50;4.00;;;;;26.25;37.11;101900.34;5070329;28;45343;-51
2022/06/16 09:26:47;;;;;;;;;8.75;5.25;;;;;26.29;36.94;101899.84;5062048;28;45394;-52
2022/06/16 09:29:49;;;;;;;;;7.00;6.00;;;;;26.34;36.77;101902.91;5062008;28;45923;-54
2022/06/16 09:32:52;;;;;;;;;4.00;4.00;;;;;26.44;36.44;101909.03;5050540;28;45621;-53
2022/06/16 09:35:32;;;;;;;;;5.25;5.00;;;;;26.53;36.47;101909.03;5039438;28;45365;-52
2022/06/16 09:38:02;;;;;;;;;5.25;5.25;;;;;26.57;36.38;101913.94;5039834;28;45198;-54
2022/06/16 09:40:56;;;;;;;;;6.25;5.75;;;;;26.64;36.29;101919.53;5052354;28;46128;-54
2022/06/16 09:43:42;;;;;;;;;8.00;6.00;;;;;26.72;36.13;101914.13;5056766;28;45331;-54
2022/06/16 09:46:24;;;;;;;;;5.25;5.00;;;;;26.78;36.15;101908.06;5061574;28;45496;-53
2022/06/16 09:49:03;;;;;;;;;11.00;7.75;;;;;26.76;35.98;101901.13;5061956;28;45291;-53
2022/06/16 09:51:35;;;;;;;;;4.50;4.50;;;;;26.80;35.71;101903.31;5060442;28;47257;-55
2022/06/16 09:54:25;;;;;;;;;5.75;5.75;;;;;26.86;35.60;101889.13;5061639;28;45375;-54
2022/06/16 09:57:10;;;;;;;;;5.25;5.00;;;;;26.92;35.48;101884.88;5060933;28;45307;-53
2022/06/16 09:59:45;;;;;;;;;6.75;6.00;;;;;26.98;35.41;101885.06;5061828;28;45535;-52
2022/06/16 10:02:19;;;;;;;;;4.25;4.00;;;;;27.00;35.37;101884.88;5061024;28;45227;-53
2022/06/16 10:04:48;;;;;;;;;5.25;4.50;;;;;27.04;35.44;101882.72;5061449;28;46298;-53
2022/06/16 10:07:50;;;;;;;;;5.25;5.25;;;;;27.13;35.30;101874.41;5061405;28;45279;-53
2022/06/16 10:10:40;;;;;;;;;7.00;5.75;;;;;27.25;34.96;101874.88;5061150;28;45468;-53
2022/06/16 10:13:45;;;;;;;;;8.00;6.00;;;;;27.35;35.02;101885.53;5061210;28;46035;-54
2022/06/16 10:16:14;;;;;;;;;8.50;7.00;;;;;27.38;35.07;101877.06;5061244;28;45403;-54
2022/06/16 10:18:41;;;;;;;;;7.00;7.00;;;;;27.38;34.75;101880.63;5060928;28;45273;-54
2022/06/16 10:21:08;;;;;;;;;10.25;7.25;;;;;27.41;34.72;101888.41;5060812;28;45193;-53
2022/06/16 10:23:49;;;;;;;;;9.25;8.00;;;;;27.42;34.75;101881.97;5068076;28;45267;-54
2022/06/16 10:26:15;;;;;;;;;8.25;6.50;;;;;27.47;34.79;101879.56;5060784;28;45303;-54
2022/06/16 10:28:40;;;;;;;;;7.50;7.00;;;;;27.58;34.59;101886.50;5061133;28;45351;-52
2022/06/16 10:31:07;;;;;;;;;10.75;8.75;;;;;27.64;34.55;101888.47;5060770;28;45420;-54
2022/06/16 10:33:51;;;;;;;;;9.00;6.50;;;;;27.65;34.29;101892.91;5060862;28;45271;-50
2022/06/16 10:36:23;;;;;;;;;6.75;6.75;;;;;27.67;34.49;101890.03;5059055;28;45331;-53
2022/06/16 10:39:14;;;;;;;;;10.25;7.25;;;;;27.72;34.06;101882.22;5060724;28;45326;-53
2022/06/16 10:41:49;;;;;;;;;10.00;8.00;;;;;27.71;33.98;101875.13;5060581;28;45365;-50
2022/06/16 10:44:16;;;;;;;;;6.00;5.50;;;;;27.77;34.43;101882.53;5060033;28;45407;-50
2022/06/16 10:46:55;;;;;;;;;11.00;9.50;;;;;27.79;34.26;101884.03;5060357;28;45336;-53
2022/06/16 10:49:34;;;;;;;;;8.50;7.00;;;;;27.83;34.41;101872.88;5060458;28;45319;-53
2022/06/16 10:52:39;;;;;;;;;8.50;8.25;;;;;27.88;33.97;101876.72;5060679;28;45216;-52
2022/06/16 10:55:20;;;;;;;;;10.25;6.75;;;;;27.95;33.90;101877.72;5037993;28;45321;-52
2022/06/16 10:58:03;;;;;;;;;9.75;8.25;;;;;27.98;33.89;101880.06;5058715;28;45339;-50
2022/06/16 11:00:32;;;;;;;;;8.00;7.75;;;;;27.99;34.31;101875.50;5058469;28;45332;-51
2022/06/16 11:03:04;;;;;;;;;9.50;8.00;;;;;28.02;33.91;101870.56;5060354;28;45484;-53
2022/06/16 11:05:36;;;;;;;;;10.25;8.00;;;;;28.06;33.98;101863.78;5060065;28;46230;-51
2022/06/16 11:08:09;;;;;;;;;12.25;7.25;;;;;28.14;34.19;101872.88;5060382;28;45378;-49
2022/06/16 11:10:37;;;;;;;;;13.25;9.00;;;;;28.23;34.19;101882.66;5062640;28;45240;-51
2022/06/16 11:13:04;;;;;;;;;9.25;6.75;;;;;28.28;33.63;101874.78;5064140;28;45423;-53
2022/06/16 11:15:38;;;;;;;;;8.50;8.25;;;;;28.30;33.97;101875.53;5064222;28;45478;-51
2022/06/16 11:18:07;;;;;;;;;9.25;7.00;;;;;28.36;33.49;101872.09;5064060;28;45335;-51
2022/06/16 11:20:43;;;;;;;;;9.75;8.25;;;;;28.41;33.17;101866.97;5063892;28;45362;-54
2022/06/16 11:23:24;;;;;;;;;6.50;6.00;;;;;28.48;33.75;101873.34;5071388;28;45422;-53
2022/06/16 11:26:18;;;;;;;;;11.00;9.00;;;;;28.58;33.06;101867.66;5063766;28;45982;-54
2022/06/16 11:28:57;;;;;;;;;9.75;6.75;;;;;28.61;33.67;101876.31;5063783;28;45344;-53
2022/06/16 11:31:34;;;;;;;;;14.75;9.25;;;;;28.60;33.02;101873.78;5063877;28;45339;-56
2022/06/16 11:34:17;;;;;;;;;8.50;8.50;;;;;28.63;33.10;101882.38;5063683;28;45399;-53
2022/06/16 11:37:01;;;;;;;;;9.75;7.00;;;;;28.69;33.37;101885.41;5051232;28;45288;-54
2022/06/16 11:40:03;;;;;;;;;7.25;6.50;;;;;28.70;32.92;101877.06;5062287;28;45305;-53
2022/06/16 11:42:31;;;;;;;;;8.00;5.50;;;;;28.72;32.95;101869.59;5062262;28;45508;-54
2022/06/16 11:45:10;;;;;;;;;8.00;7.00;;;;;28.75;32.77;101877.34;5064000;28;45538;-53
2022/06/16 11:48:03;;;;;;;;;8.25;7.25;;;;;28.77;32.64;101869.91;5063674;28;45322;-53
2022/06/16 11:50:43;;;;;;;;;6.50;6.50;;;;;28.82;32.94;101870.16;5062906;28;45366;-51
2022/06/16 11:53:42;;;;;;;;;4.00;3.50;;;;;28.86;32.81;101870.66;5063729;28;45350;-53
2022/06/16 11:56:42;;;;;;;;;6.50;6.50;;;;;28.91;32.61;101882.69;5063632;28;45288;-55